createdAt,value
2023-03-06T00:00:58.843Z,3.10
2023-03-06T00:04:01.565Z,3.10
2023-03-06T00:07:04.408Z,3.09
2023-03-06T00:10:07.679Z,3.03
2023-03-06T00:13:13.332Z,3.00
2023-03-06T00:16:16.205Z,2.98
2023-03-06T00:19:19.950Z,3.02
2023-03-06T00:22:22.940Z,3.01
2023-03-06T00:25:25.819Z,2.99
2023-03-06T00:28:31.526Z,2.97
2023-03-06T00:31:36.007Z,2.98
2023-03-06T00:34:39.826Z,2.96
2023-03-06T00:37:45.015Z,2.97
2023-03-06T00:40:48.389Z,2.98
2023-03-06T00:43:51.199Z,2.93
2023-03-06T00:46:53.947Z,2.95
2023-03-06T00:49:56.931Z,2.95
2023-03-06T00:52:59.697Z,2.98
2023-03-06T00:56:02.434Z,2.97
2023-03-06T00:59:05.541Z,2.97
2023-03-06T01:02:09.197Z,2.96
2023-03-06T01:05:14.726Z,2.96
2023-03-06T01:08:17.844Z,2.98
2023-03-06T01:11:21.843Z,2.98
2023-03-06T01:14:24.968Z,2.93
2023-03-06T01:17:27.786Z,2.90
2023-03-06T01:20:31.349Z,2.89
2023-03-06T01:23:35.029Z,2.88
2023-03-06T01:26:38.073Z,2.89
2023-03-06T01:29:41.624Z,2.87
2023-03-06T01:32:44.429Z,2.84
2023-03-06T01:35:47.720Z,2.84
2023-03-06T01:38:52.296Z,2.86
2023-03-06T01:41:55.556Z,2.86
2023-03-06T01:45:09.622Z,2.86
2023-03-06T01:48:13.827Z,2.85
2023-03-06T01:51:17.148Z,2.84
2023-03-06T01:54:38.086Z,2.87
2023-03-06T01:57:45.138Z,2.84
2023-03-06T02:00:48.081Z,2.87
2023-03-06T02:03:51.554Z,2.91
2023-03-06T02:06:54.514Z,2.91
2023-03-06T02:09:59.822Z,2.92
2023-03-06T02:13:04.981Z,2.94
2023-03-06T02:16:09.621Z,2.96
2023-03-06T02:19:30.391Z,2.99
2023-03-06T02:22:49.711Z,2.93
2023-03-06T02:25:53.805Z,2.96
2023-03-06T02:28:59.216Z,2.98
2023-03-06T02:32:02.764Z,2.93
2023-03-06T02:35:07.172Z,2.99
2023-03-06T02:38:13.654Z,3.00
2023-03-06T02:41:17.609Z,3.02
2023-03-06T02:44:23.077Z,3.04
2023-03-06T02:47:26.096Z,3.06
2023-03-06T02:50:30.654Z,3.06
2023-03-06T02:53:33.397Z,3.06
2023-03-06T02:56:36.119Z,3.06
2023-03-06T02:59:39.046Z,3.02
2023-03-06T03:02:42.841Z,3.04
2023-03-06T03:05:45.522Z,3.00
2023-03-06T03:08:49.994Z,3.00
2023-03-06T03:11:53.632Z,3.01
2023-03-06T03:14:56.874Z,3.01
2023-03-06T03:17:59.909Z,2.94
2023-03-06T03:21:08.064Z,2.95
2023-03-06T03:24:10.714Z,2.95
2023-03-06T03:27:14.177Z,2.95
2023-03-06T03:30:17.932Z,2.91
2023-03-06T03:33:21.210Z,2.91
2023-03-06T03:36:24.609Z,2.94
2023-03-06T03:39:27.737Z,2.91
2023-03-06T03:42:30.694Z,2.86
2023-03-06T03:45:34.976Z,2.83
2023-03-06T03:48:38.818Z,2.77
2023-03-06T03:51:42.029Z,2.80
2023-03-06T03:54:45.526Z,2.79
2023-03-06T03:57:49.056Z,2.76
2023-03-06T04:00:52.038Z,2.77
2023-03-06T04:03:54.971Z,2.74
2023-03-06T04:07:01.065Z,2.76
2023-03-06T04:10:06.903Z,2.79
2023-03-06T04:13:11.003Z,2.75
2023-03-06T04:16:15.156Z,2.77
2023-03-06T04:19:19.287Z,2.83
2023-03-06T04:22:22.530Z,2.86
2023-03-06T04:25:25.020Z,2.87
2023-03-06T04:28:29.792Z,2.84
2023-03-06T04:31:34.254Z,2.84
2023-03-06T04:34:43.786Z,2.86
2023-03-06T04:37:46.858Z,2.81
2023-03-06T04:40:50.254Z,2.82
2023-03-06T04:43:54.007Z,2.79
2023-03-06T04:46:57.297Z,2.77
2023-03-06T04:50:01.665Z,2.76
2023-03-06T04:53:05.416Z,2.76
2023-03-06T04:56:08.728Z,2.76
2023-03-06T04:59:12.263Z,2.74
2023-03-06T05:02:14.829Z,2.73
2023-03-06T05:05:18.659Z,2.73
2023-03-06T05:08:28.832Z,2.70
2023-03-06T05:11:35.457Z,2.64
2023-03-06T05:14:38.373Z,2.69
2023-03-06T05:17:44.790Z,2.68
2023-03-06T05:20:49.053Z,2.69
2023-03-06T05:23:53.328Z,2.73
2023-03-06T05:26:56.139Z,2.72
2023-03-06T05:30:06.843Z,2.72
2023-03-06T05:33:12.757Z,2.73
2023-03-06T05:36:21.968Z,2.71
2023-03-06T05:39:26.158Z,2.75
2023-03-06T05:42:31.013Z,2.67
2023-03-06T05:45:37.425Z,2.63
2023-03-06T05:48:41.221Z,2.65
2023-03-06T05:51:45.484Z,2.68
2023-03-06T05:54:54.549Z,2.73
2023-03-06T05:57:58.564Z,2.76
2023-03-06T06:01:15.361Z,2.79
2023-03-06T06:04:18.755Z,2.84
2023-03-06T06:07:22.510Z,2.91
2023-03-06T06:10:26.375Z,2.95
2023-03-06T06:13:29.662Z,3.00
2023-03-06T06:16:32.908Z,3.02
2023-03-06T06:19:36.045Z,2.98
2023-03-06T06:22:39.937Z,2.99
2023-03-06T06:25:45.728Z,3.01
2023-03-06T06:28:55.023Z,3.06
2023-03-06T06:31:59.953Z,3.11
2023-03-06T06:35:06.119Z,3.14
2023-03-06T06:38:09.857Z,3.17
2023-03-06T06:44:40.777Z,3.28
2023-03-06T06:47:44.837Z,3.32
2023-03-06T06:50:56.030Z,3.39
2023-03-06T06:54:02.019Z,3.43
2023-03-06T06:57:05.182Z,3.45
2023-03-06T07:00:18.127Z,3.48
2023-03-06T07:03:25.009Z,3.50
2023-03-06T07:06:28.752Z,3.48
2023-03-06T07:09:31.926Z,3.55
2023-03-06T07:12:42.217Z,3.59
2023-03-06T07:15:45.632Z,3.62
2023-03-06T07:18:58.158Z,3.70
2023-03-06T07:22:13.073Z,3.74
2023-03-06T07:25:19.759Z,3.78
2023-03-06T07:28:27.174Z,3.87
2023-03-06T07:31:30.463Z,4.01
2023-03-06T07:34:34.914Z,4.11
2023-03-06T07:37:40.899Z,4.08
2023-03-06T07:40:48.730Z,4.17
2023-03-06T07:43:52.709Z,4.22
2023-03-06T07:46:58.993Z,4.24
2023-03-06T07:50:05.456Z,4.42
2023-03-06T07:53:10.816Z,4.71
2023-03-06T07:56:15.925Z,5.01
2023-03-06T07:59:19.461Z,5.27
2023-03-06T08:02:24.477Z,5.71
2023-03-06T08:05:28.980Z,6.05
2023-03-06T08:08:33.647Z,6.06
2023-03-06T08:11:37.936Z,6.10
2023-03-06T08:14:42.772Z,6.19
2023-03-06T08:17:48.984Z,6.03
2023-03-06T08:21:12.009Z,6.07
2023-03-06T08:24:17.684Z,6.13
2023-03-06T08:27:20.812Z,6.24
2023-03-06T08:30:31.487Z,6.13
2023-03-06T08:33:35.926Z,5.69
2023-03-06T08:36:40.223Z,5.67
2023-03-06T08:39:43.110Z,6.15
2023-03-06T08:42:49.913Z,5.91
2023-03-06T08:45:54.971Z,7.46
2023-03-06T08:49:00.398Z,9.36
2023-03-06T08:52:07.153Z,8.90
2023-03-06T08:55:13.262Z,8.92
2023-03-06T08:58:24.725Z,9.34
2023-03-06T09:01:31.002Z,9.10
2023-03-06T09:04:38.116Z,9.47
2023-03-06T09:07:45.096Z,8.96
2023-03-06T09:10:49.377Z,10.46
2023-03-06T09:13:54.280Z,11.32
2023-03-06T09:16:57.161Z,10.43
2023-03-06T09:20:00.245Z,12.13
2023-03-06T09:23:06.695Z,12.34
2023-03-06T09:26:12.647Z,11.93
2023-03-06T09:29:17.144Z,11.03
2023-03-06T09:32:23.019Z,9.34
2023-03-06T09:35:28.615Z,9.62
2023-03-06T09:38:32.942Z,8.51
2023-03-06T09:41:40.540Z,8.45
2023-03-06T09:44:50.746Z,7.98
2023-03-06T09:48:17.169Z,7.79
2023-03-06T09:51:48.385Z,7.60
2023-03-06T09:55:01.084Z,8.22
2023-03-06T09:58:24.874Z,7.91
2023-03-06T10:01:33.312Z,7.60
2023-03-06T10:04:50.929Z,6.97
2023-03-06T10:08:03.567Z,6.97
2023-03-06T10:11:12.439Z,6.97
2023-03-06T10:14:40.775Z,7.02
2023-03-06T10:17:50.658Z,6.63
2023-03-06T10:21:18.717Z,6.96
2023-03-06T10:24:53.948Z,7.09
2023-03-06T10:28:02.385Z,7.12
2023-03-06T10:31:23.317Z,7.14
2023-03-06T10:34:33.392Z,7.03
2023-03-06T10:37:38.137Z,6.80
2023-03-06T10:40:53.824Z,6.62
2023-03-06T10:44:01.259Z,6.59
2023-03-06T10:47:30.658Z,6.56
2023-03-06T10:50:34.926Z,6.61
2023-03-06T10:53:51.658Z,6.65
2023-03-06T10:56:56.130Z,6.77
2023-03-06T11:00:07.865Z,7.04
2023-03-06T11:03:21.156Z,7.10
2023-03-06T11:06:35.683Z,7.21
2023-03-06T11:09:39.631Z,7.41
2023-03-06T11:13:00.616Z,7.37
2023-03-06T11:16:26.987Z,7.45
2023-03-06T11:19:33.054Z,7.54
2023-03-06T11:22:40.029Z,8.16
2023-03-06T11:25:50.701Z,8.04
2023-03-06T11:29:04.467Z,8.20
2023-03-06T11:32:15.352Z,8.37
2023-03-06T11:35:25.996Z,8.11
2023-03-06T11:38:53.884Z,8.44
2023-03-06T11:42:24.703Z,8.52
2023-03-06T11:45:36.692Z,8.33
2023-03-06T11:48:49.949Z,8.31
2023-03-06T11:52:01.596Z,8.54
2023-03-06T11:55:04.989Z,8.54
2023-03-06T11:58:33.458Z,8.47
2023-03-06T12:02:21.756Z,8.51
2023-03-06T12:05:37.768Z,8.57
2023-03-06T12:09:04.537Z,9.07
2023-03-06T12:12:21.070Z,9.19
2023-03-06T12:15:51.718Z,9.17
2023-03-06T12:19:09.662Z,9.24
2023-03-06T12:22:57.656Z,8.95
2023-03-06T12:27:12.718Z,8.77
2023-03-06T12:30:16.851Z,8.45
2023-03-06T12:33:33.902Z,8.43
2023-03-06T12:36:59.725Z,8.25
2023-03-06T12:40:29.673Z,8.40
2023-03-06T12:43:58.878Z,8.40
2023-03-06T12:47:12.893Z,8.54
2023-03-06T12:50:40.228Z,8.69
2023-03-06T12:53:45.585Z,8.86
2023-03-06T12:56:55.553Z,9.16
2023-03-06T13:00:01.889Z,9.10
2023-03-06T13:03:20.480Z,9.10
2023-03-06T13:06:50.743Z,9.28
2023-03-06T13:10:33.913Z,9.16
2023-03-06T13:13:48.947Z,8.93
2023-03-06T13:16:52.704Z,8.92
2023-03-06T13:20:15.236Z,8.96
2023-03-06T13:23:30.287Z,8.99
2023-03-06T13:26:39.740Z,9.01
2023-03-06T13:29:50.852Z,8.94
2023-03-06T13:32:54.907Z,8.96
2023-03-06T13:36:00.512Z,8.88
2023-03-06T13:39:16.000Z,8.89
2023-03-06T13:42:28.701Z,8.93
2023-03-06T13:45:53.673Z,9.04
2023-03-06T13:49:10.921Z,9.08
2023-03-06T13:52:39.946Z,9.12
2023-03-06T13:55:56.173Z,9.01
2023-03-06T13:59:18.653Z,8.96
2023-03-06T14:03:17.895Z,8.82
2023-03-06T14:06:34.889Z,8.83
2023-03-06T14:09:47.690Z,8.81
2023-03-06T14:13:05.769Z,8.74
2023-03-06T14:16:27.782Z,8.63
2023-03-06T14:19:45.699Z,8.58
2023-03-06T14:23:24.714Z,8.54
2023-03-06T14:26:40.605Z,8.51
2023-03-06T14:29:48.793Z,8.47
2023-03-06T14:32:56.146Z,8.49
2023-03-06T14:36:13.763Z,8.49
2023-03-06T14:39:33.513Z,8.49
2023-03-06T14:42:44.329Z,8.49
2023-03-06T14:46:00.874Z,8.47
2023-03-06T14:49:23.617Z,8.47
2023-03-06T14:52:43.619Z,8.43
2023-03-06T14:56:06.684Z,8.37
2023-03-06T14:59:17.697Z,8.35
2023-03-06T15:02:26.967Z,8.32
2023-03-06T15:05:45.050Z,8.27
2023-03-06T15:09:13.865Z,8.26
2023-03-06T15:12:34.056Z,8.02
2023-03-06T15:16:06.611Z,7.76
2023-03-06T15:19:21.002Z,7.22
2023-03-06T15:22:44.935Z,7.21
2023-03-06T15:25:55.125Z,6.80
2023-03-06T15:29:17.564Z,6.86
2023-03-06T15:32:42.735Z,6.76
2023-03-06T15:36:05.836Z,6.46
2023-03-06T15:39:36.630Z,6.49
2023-03-06T15:42:49.708Z,6.52
2023-03-06T15:46:00.165Z,6.17
2023-03-06T15:49:06.716Z,6.35
2023-03-06T15:52:11.914Z,6.26
2023-03-06T15:55:17.207Z,6.25
2023-03-06T15:58:35.657Z,6.07
2023-03-06T16:01:46.703Z,6.14
2023-03-06T16:04:51.677Z,6.10
2023-03-06T16:08:05.691Z,6.06
2023-03-06T16:11:26.033Z,6.17
2023-03-06T16:14:34.758Z,6.00
2023-03-06T16:17:45.605Z,6.07
2023-03-06T16:20:49.676Z,5.96
2023-03-06T16:24:02.703Z,5.89
2023-03-06T16:27:25.686Z,5.71
2023-03-06T16:30:34.710Z,5.69
2023-03-06T16:33:43.149Z,5.78
2023-03-06T16:36:49.756Z,5.79
2023-03-06T16:39:54.646Z,5.71
2023-03-06T16:43:13.723Z,5.92
2023-03-06T16:46:24.748Z,5.93
2023-03-06T16:49:52.218Z,5.91
2023-03-06T16:53:01.957Z,5.74
2023-03-06T16:56:05.669Z,5.80
2023-03-06T16:59:16.044Z,5.88
2023-03-06T17:02:38.298Z,5.67
2023-03-06T17:05:49.978Z,5.28
2023-03-06T17:09:01.107Z,5.40
2023-03-06T17:12:07.781Z,5.44
2023-03-06T17:15:18.876Z,5.31
2023-03-06T17:18:33.547Z,5.15
2023-03-06T17:21:50.816Z,5.05
2023-03-06T17:24:56.696Z,5.04
2023-03-06T17:28:07.708Z,4.88
2023-03-06T17:31:27.702Z,4.81
2023-03-06T17:34:38.719Z,4.75
2023-03-06T17:37:42.790Z,4.68
2023-03-06T17:40:52.781Z,4.68
2023-03-06T17:43:57.893Z,4.79
2023-03-06T17:47:08.733Z,4.65
2023-03-06T17:50:26.619Z,4.70
2023-03-06T17:53:39.324Z,4.61
2023-03-06T17:56:52.671Z,4.58
2023-03-06T18:00:06.190Z,4.56
2023-03-06T18:03:21.299Z,4.57
2023-03-06T18:06:36.670Z,4.53
2023-03-06T18:09:44.913Z,4.54
2023-03-06T18:13:03.571Z,4.47
2023-03-06T18:16:09.034Z,4.56
2023-03-06T18:19:28.857Z,4.47
2023-03-06T18:22:39.970Z,4.50
2023-03-06T18:25:47.854Z,4.42
2023-03-06T18:29:01.771Z,4.42
2023-03-06T18:32:11.759Z,4.34
2023-03-06T18:35:18.968Z,4.32
2023-03-06T18:38:30.817Z,4.29
2023-03-06T18:41:38.871Z,4.22
2023-03-06T18:44:48.230Z,4.17
2023-03-06T18:48:02.667Z,4.23
2023-03-06T18:51:10.964Z,4.19
2023-03-06T18:54:21.961Z,4.25
2023-03-06T18:57:32.007Z,4.31
2023-03-06T19:00:50.752Z,4.29
2023-03-06T19:03:56.835Z,4.27
2023-03-06T19:07:02.967Z,4.23
2023-03-06T19:10:13.307Z,4.18
2023-03-06T19:13:21.695Z,4.32
2023-03-06T19:16:27.628Z,4.27
2023-03-06T19:19:31.222Z,4.34
2023-03-06T19:22:35.500Z,4.35
2023-03-06T19:25:59.043Z,4.29
2023-03-06T19:29:01.950Z,4.41
2023-03-06T19:32:11.770Z,4.36
2023-03-06T19:35:16.822Z,4.30
2023-03-06T19:38:22.023Z,4.19
2023-03-06T19:41:28.148Z,4.03
2023-03-06T19:44:33.826Z,4.01
2023-03-06T19:47:39.698Z,4.02
2023-03-06T19:50:50.247Z,3.99
2023-03-06T19:54:00.975Z,3.90
2023-03-06T19:57:09.726Z,3.95
2023-03-06T20:00:16.712Z,3.88
2023-03-06T20:03:25.713Z,3.85
2023-03-06T20:06:40.644Z,3.78
2023-03-06T20:10:01.212Z,3.75
2023-03-06T20:13:06.621Z,3.78
2023-03-06T20:16:17.554Z,3.77
2023-03-06T20:19:23.129Z,3.78
2023-03-06T20:22:40.537Z,3.76
2023-03-06T20:25:49.581Z,3.77
2023-03-06T20:29:05.335Z,3.81
2023-03-06T20:32:10.644Z,3.85
2023-03-06T20:35:19.233Z,3.82
2023-03-06T20:38:32.583Z,3.83
2023-03-06T20:41:46.938Z,3.84
2023-03-06T20:44:51.111Z,3.85
2023-03-06T20:47:56.395Z,3.88
2023-03-06T20:51:09.684Z,3.91
2023-03-06T20:54:17.658Z,3.91
2023-03-06T20:57:21.590Z,4.00
2023-03-06T21:00:26.017Z,4.03
2023-03-06T21:03:32.909Z,4.03
2023-03-06T21:06:44.535Z,4.05
2023-03-06T21:09:59.105Z,4.09
2023-03-06T21:13:04.626Z,4.07
2023-03-06T21:16:14.423Z,4.04
2023-03-06T21:19:20.229Z,4.07
2023-03-06T21:22:24.951Z,3.98
2023-03-06T21:25:29.581Z,3.99
2023-03-06T21:28:36.626Z,3.97
2023-03-06T21:31:43.037Z,4.04
2023-03-06T21:34:48.808Z,3.94
2023-03-06T21:37:53.133Z,3.89
2023-03-06T21:41:08.153Z,3.88
2023-03-06T21:44:12.611Z,3.92
2023-03-06T21:47:15.350Z,3.75
2023-03-06T21:50:19.797Z,3.73
2023-03-06T21:53:23.241Z,3.65
2023-03-06T21:56:33.776Z,3.63
2023-03-06T21:59:43.825Z,3.50
2023-03-06T22:02:52.624Z,3.49
2023-03-06T22:06:17.732Z,3.52
2023-03-06T22:09:20.392Z,3.56
2023-03-06T22:12:25.373Z,3.50
2023-03-06T22:15:29.140Z,3.48
2023-03-06T22:18:35.580Z,3.53
2023-03-06T22:21:39.273Z,3.52
2023-03-06T22:24:54.515Z,3.52
2023-03-06T22:27:59.305Z,3.48
2023-03-06T22:31:11.404Z,3.42
2023-03-06T22:34:15.570Z,3.41
2023-03-06T22:37:18.999Z,3.34
2023-03-06T22:40:23.268Z,3.33
2023-03-06T22:43:26.365Z,3.34
2023-03-06T22:46:31.942Z,3.22
2023-03-06T22:49:37.628Z,3.17
2023-03-06T22:52:41.692Z,3.19
2023-03-06T22:55:46.620Z,3.21
2023-03-06T22:58:50.114Z,3.16
2023-03-06T23:01:53.141Z,3.17
2023-03-06T23:04:56.225Z,3.19
2023-03-06T23:07:59.600Z,3.19
2023-03-06T23:11:02.371Z,3.15
2023-03-06T23:14:24.294Z,3.21
2023-03-06T23:17:45.705Z,3.16
2023-03-06T23:21:15.446Z,3.26
2023-03-06T23:24:36.717Z,3.21
2023-03-06T23:27:41.118Z,3.24
2023-03-06T23:30:44.208Z,3.21
2023-03-06T23:33:47.341Z,3.19
2023-03-06T23:36:50.101Z,3.21
2023-03-06T23:39:55.568Z,3.21
2023-03-06T23:42:59.131Z,3.19
2023-03-06T23:46:02.432Z,3.17
2023-03-06T23:49:07.476Z,3.08
2023-03-06T23:52:10.414Z,2.96
2023-03-06T23:55:13.551Z,2.88
2023-03-06T23:58:18.928Z,2.83
